Strona główna
METAR-TAF:

METAR-TAF

Lotnisko :

Port lotniczy Çanakkale

Çanakkale, Turcja

Szerokość geograficzna: 40-08N, Długość geograficzna: 026-24E, wysokość: 3 m

Aktualna obserwacja pogody

Raport powstał 20 minut temu, godzina 10:50 UTC
Temperatura 12°C
Wilgotność 62%
Ciśnienie 1019 hPa
Widzialność 10 km lub więcej
Brak chmur poniżej 1500 m i brak chmur cumulonimbus

METAR: LTBH 181050Z /////KT CAVOK 12/05 Q1019

czas: 14:10 (11:10 UTC)

Prognoza

Raport powstał 3 godziny i 30 minut temu, godzina 07:40 UTC
Prognoza ważna od 18 godzina 09 UTC do 18 godzina 18 UTC
Wiatr 8 kt od północny wschód
Widzialność 10 km lub więcej
Brak chmur poniżej 1500 m i brak chmur cumulonimbus

TAF: LTBH 180740Z 1809/1818 05008KT CAVOK

Obserwacja i prognoza pogody dla ponad 4000 lotnisk (raport METAR i TAF).

Dostępne stacje oznaczono żółtymi i czerwonymi punktami na mapie.

Najedź kursorem aby zobaczyć nazwę stacji.

Kliknij aby zobaczyć obserwacje i prognozy pogody.

Aby zmienić mapę: kliknij na zielony przycisk z czarnym krzyżykiem, aby powiększyć; na zielony przycisk z myślnikiem, aby pomniejszyć; na zielone strzałki, aby przejść do map sąsiednich.


METAR-TAF: